Harbison, Indiana
Current Conditions -  °F | °C
As of 10:35 PM on Saturday 22 Nov 2014 (Local Time) from KHNB Reporting Station
Scattered Clouds Scattered Clouds  
Wind Chill: 54°   Ceiling: Unl
Heat Index: 54°   Visibility: 10mi
Dew Point: 36°   Wind: 10mph
Humidity: 51%   Direction: 180°S
Pressure: 30.02"   Gusts: NA
Location:  38.4736°N, 86.7813°W
Report Text: KHNB 230435Z AUTO 18009KT 10SM FEW055 SCT120 12/02 A3002 RMK AO1
Loading
Personal Weather Stations






























Interactive Weather Map New forecast layout! Learn more

10-Day Weather Forecast

Advertisements
Track Severe Weather on mobile